sensor_id;sensor_type;location;lat;lon;timestamp;temperature;humidity
46139;DHT22;32398;49.112;8.598;2024-02-23T00:01:21;9.50;99.50
46139;DHT22;32398;49.112;8.598;2024-02-23T00:03:47;9.40;99.50
46139;DHT22;32398;49.112;8.598;2024-02-23T00:06:14;9.40;99.80
46139;DHT22;32398;49.112;8.598;2024-02-23T00:08:41;9.40;99.60
46139;DHT22;32398;49.112;8.598;2024-02-23T00:11:08;9.40;99.70
46139;DHT22;32398;49.112;8.598;2024-02-23T00:13:34;9.40;99.70
46139;DHT22;32398;49.112;8.598;2024-02-23T00:16:01;9.30;99.90
46139;DHT22;32398;49.112;8.598;2024-02-23T00:18:29;9.30;99.80
46139;DHT22;32398;49.112;8.598;2024-02-23T00:20:58;9.40;99.90
46139;DHT22;32398;49.112;8.598;2024-02-23T00:23:25;9.30;99.90
46139;DHT22;32398;49.112;8.598;2024-02-23T00:25:54;9.30;99.90
46139;DHT22;32398;49.112;8.598;2024-02-23T00:28:21;9.30;99.90
46139;DHT22;32398;49.112;8.598;2024-02-23T00:30:47;9.30;99.90
46139;DHT22;32398;49.112;8.598;2024-02-23T00:33:14;9.20;99.80
46139;DHT22;32398;49.112;8.598;2024-02-23T00:35:42;9.30;99.90
46139;DHT22;32398;49.112;8.598;2024-02-23T00:38:18;9.20;99.30
46139;DHT22;32398;49.112;8.598;2024-02-23T00:40:58;9.20;99.40
46139;DHT22;32398;49.112;8.598;2024-02-23T00:43:25;9.20;99.20
46139;DHT22;32398;49.112;8.598;2024-02-23T00:45:54;9.20;99.40
46139;DHT22;32398;49.112;8.598;2024-02-23T00:48:21;9.10;99.50
46139;DHT22;32398;49.112;8.598;2024-02-23T00:50:49;9.10;99.20
46139;DHT22;32398;49.112;8.598;2024-02-23T00:53:16;9.10;99.30
46139;DHT22;32398;49.112;8.598;2024-02-23T00:55:43;9.00;99.30
46139;DHT22;32398;49.112;8.598;2024-02-23T00:58:09;9.00;99.10
46139;DHT22;32398;49.112;8.598;2024-02-23T01:00:36;9.00;99.20
46139;DHT22;32398;49.112;8.598;2024-02-23T01:03:03;9.00;99.20
46139;DHT22;32398;49.112;8.598;2024-02-23T01:05:30;8.90;99.20
46139;DHT22;32398;49.112;8.598;2024-02-23T01:07:58;8.90;98.70
46139;DHT22;32398;49.112;8.598;2024-02-23T01:10:27;8.90;99.00
46139;DHT22;32398;49.112;8.598;2024-02-23T01:12:55;8.90;99.00
46139;DHT22;32398;49.112;8.598;2024-02-23T01:15:21;8.90;99.00
46139;DHT22;32398;49.112;8.598;2024-02-23T01:17:48;8.90;98.80
46139;DHT22;32398;49.112;8.598;2024-02-23T01:20:15;8.90;98.90
46139;DHT22;32398;49.112;8.598;2024-02-23T01:22:42;8.90;98.50
46139;DHT22;32398;49.112;8.598;2024-02-23T01:25:10;8.80;98.70
46139;DHT22;32398;49.112;8.598;2024-02-23T01:27:37;8.80;98.50
46139;DHT22;32398;49.112;8.598;2024-02-23T01:30:04;8.80;98.90
46139;DHT22;32398;49.112;8.598;2024-02-23T01:32:31;8.70;98.50
46139;DHT22;32398;49.112;8.598;2024-02-23T01:34:57;8.70;98.60
46139;DHT22;32398;49.112;8.598;2024-02-23T01:37:24;8.70;98.40
46139;DHT22;32398;49.112;8.598;2024-02-23T01:39:51;8.70;98.60
46139;DHT22;32398;49.112;8.598;2024-02-23T01:42:21;8.70;97.90
46139;DHT22;32398;49.112;8.598;2024-02-23T01:44:49;8.60;98.10
46139;DHT22;32398;49.112;8.598;2024-02-23T01:47:16;8.60;98.10
46139;DHT22;32398;49.112;8.598;2024-02-23T01:49:42;8.60;97.90
46139;DHT22;32398;49.112;8.598;2024-02-23T01:52:10;8.60;98.20
46139;DHT22;32398;49.112;8.598;2024-02-23T01:54:36;8.60;98.50
46139;DHT22;32398;49.112;8.598;2024-02-23T01:57:03;8.50;98.20
46139;DHT22;32398;49.112;8.598;2024-02-23T01:59:31;8.50;98.30
46139;DHT22;32398;49.112;8.598;2024-02-23T02:01:58;8.50;98.50
46139;DHT22;32398;49.112;8.598;2024-02-23T02:04:24;8.50;98.60
46139;DHT22;32398;49.112;8.598;2024-02-23T02:06:51;8.50;98.70
46139;DHT22;32398;49.112;8.598;2024-02-23T02:09:18;8.50;98.80
46139;DHT22;32398;49.112;8.598;2024-02-23T02:11:45;8.50;99.00
46139;DHT22;32398;49.112;8.598;2024-02-23T02:14:12;8.50;99.00
46139;DHT22;32398;49.112;8.598;2024-02-23T02:16:40;8.50;99.00
46139;DHT22;32398;49.112;8.598;2024-02-23T02:19:07;8.40;98.60
46139;DHT22;32398;49.112;8.598;2024-02-23T02:21:33;8.40;98.70
46139;DHT22;32398;49.112;8.598;2024-02-23T02:24:00;8.50;98.80
46139;DHT22;32398;49.112;8.598;2024-02-23T02:26:28;8.40;98.20
46139;DHT22;32398;49.112;8.598;2024-02-23T02:28:54;8.30;98.40
46139;DHT22;32398;49.112;8.598;2024-02-23T02:31:21;8.40;98.60
46139;DHT22;32398;49.112;8.598;2024-02-23T02:33:49;8.30;98.60
46139;DHT22;32398;49.112;8.598;2024-02-23T02:36:16;8.40;98.50
46139;DHT22;32398;49.112;8.598;2024-02-23T02:38:43;8.30;98.30
46139;DHT22;32398;49.112;8.598;2024-02-23T02:41:09;8.30;98.20
46139;DHT22;32398;49.112;8.598;2024-02-23T02:43:36;8.30;98.10
46139;DHT22;32398;49.112;8.598;2024-02-23T02:46:03;8.30;98.30
46139;DHT22;32398;49.112;8.598;2024-02-23T02:48:29;8.30;98.30
46139;DHT22;32398;49.112;8.598;2024-02-23T02:50:57;8.30;98.30
46139;DHT22;32398;49.112;8.598;2024-02-23T02:53:24;8.30;98.20
46139;DHT22;32398;49.112;8.598;2024-02-23T02:55:50;8.20;98.10
46139;DHT22;32398;49.112;8.598;2024-02-23T02:58:17;8.20;98.10
46139;DHT22;32398;49.112;8.598;2024-02-23T03:00:44;8.20;98.20
46139;DHT22;32398;49.112;8.598;2024-02-23T03:03:11;8.20;98.30
46139;DHT22;32398;49.112;8.598;2024-02-23T03:05:38;8.20;98.20
46139;DHT22;32398;49.112;8.598;2024-02-23T03:08:07;8.20;98.10
46139;DHT22;32398;49.112;8.598;2024-02-23T03:10:34;8.20;98.30
46139;DHT22;32398;49.112;8.598;2024-02-23T03:13:00;8.20;98.30
46139;DHT22;32398;49.112;8.598;2024-02-23T03:15:27;8.20;98.30
46139;DHT22;32398;49.112;8.598;2024-02-23T03:17:55;8.20;98.40
46139;DHT22;32398;49.112;8.598;2024-02-23T03:20:22;8.20;98.40
46139;DHT22;32398;49.112;8.598;2024-02-23T03:22:49;8.10;98.20
46139;DHT22;32398;49.112;8.598;2024-02-23T03:25:17;8.10;98.60
46139;DHT22;32398;49.112;8.598;2024-02-23T03:27:43;8.10;98.20
46139;DHT22;32398;49.112;8.598;2024-02-23T03:30:11;8.10;98.30
46139;DHT22;32398;49.112;8.598;2024-02-23T03:32:37;8.10;98.40
46139;DHT22;32398;49.112;8.598;2024-02-23T03:35:05;8.10;98.60
46139;DHT22;32398;49.112;8.598;2024-02-23T03:37:32;8.10;98.60
46139;DHT22;32398;49.112;8.598;2024-02-23T03:39:59;8.10;98.70
46139;DHT22;32398;49.112;8.598;2024-02-23T03:42:27;8.10;98.50
46139;DHT22;32398;49.112;8.598;2024-02-23T03:44:54;8.10;98.60
46139;DHT22;32398;49.112;8.598;2024-02-23T03:47:21;8.10;98.30
46139;DHT22;32398;49.112;8.598;2024-02-23T03:49:47;8.00;98.20
46139;DHT22;32398;49.112;8.598;2024-02-23T03:52:14;8.00;98.10
46139;DHT22;32398;49.112;8.598;2024-02-23T03:54:41;8.10;98.30
46139;DHT22;32398;49.112;8.598;2024-02-23T03:57:07;8.00;98.40
46139;DHT22;32398;49.112;8.598;2024-02-23T03:59:36;8.00;98.10
46139;DHT22;32398;49.112;8.598;2024-02-23T04:02:03;8.00;98.20
46139;DHT22;32398;49.112;8.598;2024-02-23T04:04:31;8.00;97.70
46139;DHT22;32398;49.112;8.598;2024-02-23T04:06:57;8.00;97.40
46139;DHT22;32398;49.112;8.598;2024-02-23T04:09:24;7.90;97.60
46139;DHT22;32398;49.112;8.598;2024-02-23T04:11:51;7.90;97.50
46139;DHT22;32398;49.112;8.598;2024-02-23T04:14:17;7.90;97.50
46139;DHT22;32398;49.112;8.598;2024-02-23T04:16:46;7.90;97.40
46139;DHT22;32398;49.112;8.598;2024-02-23T04:19:12;7.90;97.30
46139;DHT22;32398;49.112;8.598;2024-02-23T04:21:39;7.90;97.40
46139;DHT22;32398;49.112;8.598;2024-02-23T04:24:06;7.80;97.10
46139;DHT22;32398;49.112;8.598;2024-02-23T04:26:34;7.90;97.40
46139;DHT22;32398;49.112;8.598;2024-02-23T04:29:00;7.90;97.30
46139;DHT22;32398;49.112;8.598;2024-02-23T04:31:27;7.90;97.30
46139;DHT22;32398;49.112;8.598;2024-02-23T04:33:55;7.90;97.20
46139;DHT22;32398;49.112;8.598;2024-02-23T04:36:22;7.90;97.30
46139;DHT22;32398;49.112;8.598;2024-02-23T04:38:48;7.90;97.40
46139;DHT22;32398;49.112;8.598;2024-02-23T04:41:18;7.80;97.50
46139;DHT22;32398;49.112;8.598;2024-02-23T04:43:45;7.80;97.60
46139;DHT22;32398;49.112;8.598;2024-02-23T04:46:12;8.30;97.90
46139;DHT22;32398;49.112;8.598;2024-02-23T04:48:38;7.80;97.60
46139;DHT22;32398;49.112;8.598;2024-02-23T04:51:06;7.80;97.50
46139;DHT22;32398;49.112;8.598;2024-02-23T04:53:36;7.80;97.50
46139;DHT22;32398;49.112;8.598;2024-02-23T04:56:02;7.80;97.50
46139;DHT22;32398;49.112;8.598;2024-02-23T04:58:29;7.80;97.60
46139;DHT22;32398;49.112;8.598;2024-02-23T05:00:56;7.80;97.70
46139;DHT22;32398;49.112;8.598;2024-02-23T05:03:22;7.80;97.50
46139;DHT22;32398;49.112;8.598;2024-02-23T05:05:49;7.80;97.50
46139;DHT22;32398;49.112;8.598;2024-02-23T05:08:20;7.80;97.50
46139;DHT22;32398;49.112;8.598;2024-02-23T05:10:49;7.70;97.60
46139;DHT22;32398;49.112;8.598;2024-02-23T05:13:16;7.70;97.70
46139;DHT22;32398;49.112;8.598;2024-02-23T05:15:42;7.70;97.70
46139;DHT22;32398;49.112;8.598;2024-02-23T05:18:09;7.70;97.80
46139;DHT22;32398;49.112;8.598;2024-02-23T05:20:35;7.70;97.70
46139;DHT22;32398;49.112;8.598;2024-02-23T05:23:02;7.70;97.80
46139;DHT22;32398;49.112;8.598;2024-02-23T05:25:30;7.70;97.80
46139;DHT22;32398;49.112;8.598;2024-02-23T05:27:57;7.70;97.40
46139;DHT22;32398;49.112;8.598;2024-02-23T05:30:24;7.70;97.30
46139;DHT22;32398;49.112;8.598;2024-02-23T05:33:01;7.60;97.00
46139;DHT22;32398;49.112;8.598;2024-02-23T05:35:28;7.60;97.00
46139;DHT22;32398;49.112;8.598;2024-02-23T05:37:55;7.60;97.10
46139;DHT22;32398;49.112;8.598;2024-02-23T05:40:21;7.60;97.30
46139;DHT22;32398;49.112;8.598;2024-02-23T05:42:49;7.50;97.00
46139;DHT22;32398;49.112;8.598;2024-02-23T05:45:16;7.60;97.10
46139;DHT22;32398;49.112;8.598;2024-02-23T05:47:43;7.60;97.10
46139;DHT22;32398;49.112;8.598;2024-02-23T05:50:10;7.60;96.90
46139;DHT22;32398;49.112;8.598;2024-02-23T05:52:37;7.50;96.70
46139;DHT22;32398;49.112;8.598;2024-02-23T05:55:04;7.60;96.90
46139;DHT22;32398;49.112;8.598;2024-02-23T05:57:31;7.50;97.00
46139;DHT22;32398;49.112;8.598;2024-02-23T06:00:00;7.50;96.90
46139;DHT22;32398;49.112;8.598;2024-02-23T06:02:26;7.50;96.70
46139;DHT22;32398;49.112;8.598;2024-02-23T06:04:53;7.50;96.80
46139;DHT22;32398;49.112;8.598;2024-02-23T06:07:19;7.40;96.90
46139;DHT22;32398;49.112;8.598;2024-02-23T06:09:52;7.40;96.80
46139;DHT22;32398;49.112;8.598;2024-02-23T06:12:18;7.40;96.30
46139;DHT22;32398;49.112;8.598;2024-02-23T06:14:45;7.40;96.30
46139;DHT22;32398;49.112;8.598;2024-02-23T06:17:15;7.40;96.20
46139;DHT22;32398;49.112;8.598;2024-02-23T06:19:41;7.30;96.00
46139;DHT22;32398;49.112;8.598;2024-02-23T06:22:08;7.30;95.90
46139;DHT22;32398;49.112;8.598;2024-02-23T06:24:35;7.30;95.90
46139;DHT22;32398;49.112;8.598;2024-02-23T06:27:02;7.30;96.20
46139;DHT22;32398;49.112;8.598;2024-02-23T06:29:29;7.30;96.30
46139;DHT22;32398;49.112;8.598;2024-02-23T06:31:56;7.30;96.30
46139;DHT22;32398;49.112;8.598;2024-02-23T06:34:24;7.20;96.00
46139;DHT22;32398;49.112;8.598;2024-02-23T06:36:50;7.20;96.20
46139;DHT22;32398;49.112;8.598;2024-02-23T06:39:17;7.10;96.10
46139;DHT22;32398;49.112;8.598;2024-02-23T06:41:45;7.20;96.00
46139;DHT22;32398;49.112;8.598;2024-02-23T06:44:12;7.20;96.20
46139;DHT22;32398;49.112;8.598;2024-02-23T06:46:38;7.20;96.20
46139;DHT22;32398;49.112;8.598;2024-02-23T06:49:05;7.20;96.20
46139;DHT22;32398;49.112;8.598;2024-02-23T06:51:33;7.20;96.30
46139;DHT22;32398;49.112;8.598;2024-02-23T06:54:00;7.10;96.20
46139;DHT22;32398;49.112;8.598;2024-02-23T06:56:26;7.10;95.90
46139;DHT22;32398;49.112;8.598;2024-02-23T06:58:53;7.10;95.80
46139;DHT22;32398;49.112;8.598;2024-02-23T07:01:20;7.10;96.00
46139;DHT22;32398;49.112;8.598;2024-02-23T07:03:46;7.00;96.00
46139;DHT22;32398;49.112;8.598;2024-02-23T07:06:16;7.10;95.90
46139;DHT22;32398;49.112;8.598;2024-02-23T07:08:45;7.00;96.20
46139;DHT22;32398;49.112;8.598;2024-02-23T07:11:12;7.00;96.00
46139;DHT22;32398;49.112;8.598;2024-02-23T07:13:38;7.00;96.00
46139;DHT22;32398;49.112;8.598;2024-02-23T07:16:06;7.00;96.00
46139;DHT22;32398;49.112;8.598;2024-02-23T07:18:32;7.00;96.10
46139;DHT22;32398;49.112;8.598;2024-02-23T07:20:59;6.90;96.20
46139;DHT22;32398;49.112;8.598;2024-02-23T07:23:27;7.00;96.40
46139;DHT22;32398;49.112;8.598;2024-02-23T07:25:55;6.90;96.50
46139;DHT22;32398;49.112;8.598;2024-02-23T07:28:21;6.90;96.70
46139;DHT22;32398;49.112;8.598;2024-02-23T07:30:48;6.90;96.70
46139;DHT22;32398;49.112;8.598;2024-02-23T07:33:15;6.90;96.80
46139;DHT22;32398;49.112;8.598;2024-02-23T07:35:42;6.90;97.00
46139;DHT22;32398;49.112;8.598;2024-02-23T07:38:08;6.90;97.10
46139;DHT22;32398;49.112;8.598;2024-02-23T07:40:35;6.90;97.20
46139;DHT22;32398;49.112;8.598;2024-02-23T07:43:03;6.90;97.40
46139;DHT22;32398;49.112;8.598;2024-02-23T07:45:30;6.90;97.50
46139;DHT22;32398;49.112;8.598;2024-02-23T07:47:58;6.90;97.50
46139;DHT22;32398;49.112;8.598;2024-02-23T07:50:25;6.90;97.70
46139;DHT22;32398;49.112;8.598;2024-02-23T07:52:52;6.90;97.80
46139;DHT22;32398;49.112;8.598;2024-02-23T07:55:18;6.80;97.90
46139;DHT22;32398;49.112;8.598;2024-02-23T07:57:45;6.80;97.90
46139;DHT22;32398;49.112;8.598;2024-02-23T08:00:14;6.80;98.00
46139;DHT22;32398;49.112;8.598;2024-02-23T08:02:41;6.80;98.10
46139;DHT22;32398;49.112;8.598;2024-02-23T08:05:07;6.80;98.10
46139;DHT22;32398;49.112;8.598;2024-02-23T08:07:35;6.80;98.20
46139;DHT22;32398;49.112;8.598;2024-02-23T08:10:01;6.80;98.20
46139;DHT22;32398;49.112;8.598;2024-02-23T08:12:30;6.80;98.30
46139;DHT22;32398;49.112;8.598;2024-02-23T08:14:56;6.80;98.20
46139;DHT22;32398;49.112;8.598;2024-02-23T08:17:25;6.70;98.10
46139;DHT22;32398;49.112;8.598;2024-02-23T08:19:51;6.70;98.10
46139;DHT22;32398;49.112;8.598;2024-02-23T08:22:18;6.70;98.10
46139;DHT22;32398;49.112;8.598;2024-02-23T08:24:45;6.70;98.10
46139;DHT22;32398;49.112;8.598;2024-02-23T08:27:11;6.80;98.10
46139;DHT22;32398;49.112;8.598;2024-02-23T08:29:38;6.70;97.90
46139;DHT22;32398;49.112;8.598;2024-02-23T08:32:05;6.70;97.70
46139;DHT22;32398;49.112;8.598;2024-02-23T08:34:33;6.70;97.80
46139;DHT22;32398;49.112;8.598;2024-02-23T08:37:00;6.70;97.80
46139;DHT22;32398;49.112;8.598;2024-02-23T08:39:29;6.70;97.60
46139;DHT22;32398;49.112;8.598;2024-02-23T08:41:55;6.70;97.50
46139;DHT22;32398;49.112;8.598;2024-02-23T08:44:22;6.70;97.40
46139;DHT22;32398;49.112;8.598;2024-02-23T08:46:48;6.70;97.20
46139;DHT22;32398;49.112;8.598;2024-02-23T08:49:15;6.70;97.20
46139;DHT22;32398;49.112;8.598;2024-02-23T08:51:43;6.70;97.20
46139;DHT22;32398;49.112;8.598;2024-02-23T08:54:09;6.70;97.10
46139;DHT22;32398;49.112;8.598;2024-02-23T08:56:36;6.70;97.00
46139;DHT22;32398;49.112;8.598;2024-02-23T08:59:03;6.70;96.90
46139;DHT22;32398;49.112;8.598;2024-02-23T09:01:30;6.70;96.90
46139;DHT22;32398;49.112;8.598;2024-02-23T09:03:58;6.80;96.90
46139;DHT22;32398;49.112;8.598;2024-02-23T09:06:26;6.80;96.80
46139;DHT22;32398;49.112;8.598;2024-02-23T09:08:54;6.80;96.60
46139;DHT22;32398;49.112;8.598;2024-02-23T09:11:24;6.80;96.50
46139;DHT22;32398;49.112;8.598;2024-02-23T09:13:50;6.90;96.40
46139;DHT22;32398;49.112;8.598;2024-02-23T09:16:17;6.80;96.20
46139;DHT22;32398;49.112;8.598;2024-02-23T09:18:47;6.90;96.00
46139;DHT22;32398;49.112;8.598;2024-02-23T09:21:14;6.90;95.90
46139;DHT22;32398;49.112;8.598;2024-02-23T09:23:41;6.90;95.70
46139;DHT22;32398;49.112;8.598;2024-02-23T09:26:12;6.90;95.50
46139;DHT22;32398;49.112;8.598;2024-02-23T09:28:40;6.90;95.30
46139;DHT22;32398;49.112;8.598;2024-02-23T09:31:07;7.00;95.10
46139;DHT22;32398;49.112;8.598;2024-02-23T09:33:34;7.00;95.00
46139;DHT22;32398;49.112;8.598;2024-02-23T09:36:02;7.00;95.00
46139;DHT22;32398;49.112;8.598;2024-02-23T09:38:29;7.00;95.10
46139;DHT22;32398;49.112;8.598;2024-02-23T09:40:57;7.10;94.90
46139;DHT22;32398;49.112;8.598;2024-02-23T09:43:26;7.10;94.80
46139;DHT22;32398;49.112;8.598;2024-02-23T09:45:55;7.20;94.80
46139;DHT22;32398;49.112;8.598;2024-02-23T09:48:22;7.20;94.90
46139;DHT22;32398;49.112;8.598;2024-02-23T09:50:50;7.20;94.80
46139;DHT22;32398;49.112;8.598;2024-02-23T09:53:19;7.30;94.70
46139;DHT22;32398;49.112;8.598;2024-02-23T09:55:47;7.30;94.70
46139;DHT22;32398;49.112;8.598;2024-02-23T09:58:14;7.40;94.70
46139;DHT22;32398;49.112;8.598;2024-02-23T10:00:45;7.40;94.60
46139;DHT22;32398;49.112;8.598;2024-02-23T10:03:14;7.50;94.60
46139;DHT22;32398;49.112;8.598;2024-02-23T10:05:40;7.50;94.40
46139;DHT22;32398;49.112;8.598;2024-02-23T10:08:11;7.60;94.10
46139;DHT22;32398;49.112;8.598;2024-02-23T10:10:38;7.70;94.10
46139;DHT22;32398;49.112;8.598;2024-02-23T10:13:04;7.80;94.20
46139;DHT22;32398;49.112;8.598;2024-02-23T10:15:31;7.90;94.20
46139;DHT22;32398;49.112;8.598;2024-02-23T10:17:59;7.90;94.20
46139;DHT22;32398;49.112;8.598;2024-02-23T10:20:26;8.00;94.10
46139;DHT22;32398;49.112;8.598;2024-02-23T10:22:53;8.10;94.00
46139;DHT22;32398;49.112;8.598;2024-02-23T10:25:19;8.10;93.90
46139;DHT22;32398;49.112;8.598;2024-02-23T10:27:46;8.20;93.80
46139;DHT22;32398;49.112;8.598;2024-02-23T10:30:13;8.20;93.70
46139;DHT22;32398;49.112;8.598;2024-02-23T10:32:40;8.30;93.50
46139;DHT22;32398;49.112;8.598;2024-02-23T10:35:09;8.40;93.50
46139;DHT22;32398;49.112;8.598;2024-02-23T10:37:36;8.40;93.30
46139;DHT22;32398;49.112;8.598;2024-02-23T10:40:04;8.40;93.20
46139;DHT22;32398;49.112;8.598;2024-02-23T10:42:35;8.50;93.50
46139;DHT22;32398;49.112;8.598;2024-02-23T10:45:06;8.60;93.10
46139;DHT22;32398;49.112;8.598;2024-02-23T10:47:33;8.60;93.10
46139;DHT22;32398;49.112;8.598;2024-02-23T10:50:01;8.70;93.00
46139;DHT22;32398;49.112;8.598;2024-02-23T10:52:32;8.60;93.00
46139;DHT22;32398;49.112;8.598;2024-02-23T10:55:00;8.80;92.90
46139;DHT22;32398;49.112;8.598;2024-02-23T10:57:30;8.70;92.90
46139;DHT22;32398;49.112;8.598;2024-02-23T10:59:56;8.90;92.90
46139;DHT22;32398;49.112;8.598;2024-02-23T11:02:23;8.90;92.80
46139;DHT22;32398;49.112;8.598;2024-02-23T11:04:51;9.00;92.80
46139;DHT22;32398;49.112;8.598;2024-02-23T11:07:19;9.00;92.80
46139;DHT22;32398;49.112;8.598;2024-02-23T11:09:51;9.10;92.50
46139;DHT22;32398;49.112;8.598;2024-02-23T11:12:28;9.10;92.40
46139;DHT22;32398;49.112;8.598;2024-02-23T11:14:58;9.20;92.30
46139;DHT22;32398;49.112;8.598;2024-02-23T11:17:26;9.20;92.00
46139;DHT22;32398;49.112;8.598;2024-02-23T11:19:53;9.30;92.00
46139;DHT22;32398;49.112;8.598;2024-02-23T11:22:23;9.30;92.00
46139;DHT22;32398;49.112;8.598;2024-02-23T11:24:51;9.30;91.80
46139;DHT22;32398;49.112;8.598;2024-02-23T11:27:18;9.40;92.00
46139;DHT22;32398;49.112;8.598;2024-02-23T11:29:45;9.40;91.60
46139;DHT22;32398;49.112;8.598;2024-02-23T11:32:12;9.30;91.50
46139;DHT22;32398;49.112;8.598;2024-02-23T11:34:39;9.30;91.70
46139;DHT22;32398;49.112;8.598;2024-02-23T11:37:07;9.30;91.60
46139;DHT22;32398;49.112;8.598;2024-02-23T11:39:33;9.30;91.80
46139;DHT22;32398;49.112;8.598;2024-02-23T11:42:05;9.20;91.80
46139;DHT22;32398;49.112;8.598;2024-02-23T11:44:32;9.20;92.00
46139;DHT22;32398;49.112;8.598;2024-02-23T11:46:59;9.20;91.60
46139;DHT22;32398;49.112;8.598;2024-02-23T11:49:30;9.30;92.00
46139;DHT22;32398;49.112;8.598;2024-02-23T11:52:00;9.20;91.60
46139;DHT22;32398;49.112;8.598;2024-02-23T11:54:26;9.20;92.10
46139;DHT22;32398;49.112;8.598;2024-02-23T11:56:55;9.30;91.90
46139;DHT22;32398;49.112;8.598;2024-02-23T11:59:24;9.30;92.00
46139;DHT22;32398;49.112;8.598;2024-02-23T12:01:51;9.30;92.10
46139;DHT22;32398;49.112;8.598;2024-02-23T12:04:20;9.40;91.80
46139;DHT22;32398;49.112;8.598;2024-02-23T12:06:46;9.40;91.40
46139;DHT22;32398;49.112;8.598;2024-02-23T12:09:13;9.50;91.30
46139;DHT22;32398;49.112;8.598;2024-02-23T12:11:40;9.60;91.10
46139;DHT22;32398;49.112;8.598;2024-02-23T12:14:07;9.70;90.90
46139;DHT22;32398;49.112;8.598;2024-02-23T12:16:36;9.70;90.90
46139;DHT22;32398;49.112;8.598;2024-02-23T12:19:03;9.80;90.90
46139;DHT22;32398;49.112;8.598;2024-02-23T12:21:29;9.90;90.90
46139;DHT22;32398;49.112;8.598;2024-02-23T12:23:56;9.90;91.00
46139;DHT22;32398;49.112;8.598;2024-02-23T12:26:23;10.00;90.50
46139;DHT22;32398;49.112;8.598;2024-02-23T12:28:49;10.00;90.70
46139;DHT22;32398;49.112;8.598;2024-02-23T12:31:16;10.00;90.60
46139;DHT22;32398;49.112;8.598;2024-02-23T12:33:54;10.00;90.60
46139;DHT22;32398;49.112;8.598;2024-02-23T12:36:23;10.00;90.70
46139;DHT22;32398;49.112;8.598;2024-02-23T12:38:49;9.90;90.40
46139;DHT22;32398;49.112;8.598;2024-02-23T12:41:16;9.90;90.10
46139;DHT22;32398;49.112;8.598;2024-02-23T12:43:43;9.90;90.30
46139;DHT22;32398;49.112;8.598;2024-02-23T12:46:13;9.90;90.70
46139;DHT22;32398;49.112;8.598;2024-02-23T12:48:39;9.90;91.00
46139;DHT22;32398;49.112;8.598;2024-02-23T12:51:07;9.80;91.20
46139;DHT22;32398;49.112;8.598;2024-02-23T12:53:34;9.80;91.40
46139;DHT22;32398;49.112;8.598;2024-02-23T12:56:03;9.80;91.30
46139;DHT22;32398;49.112;8.598;2024-02-23T12:58:33;9.80;92.00
46139;DHT22;32398;49.112;8.598;2024-02-23T13:01:00;9.70;91.80
46139;DHT22;32398;49.112;8.598;2024-02-23T13:03:26;9.80;91.40
46139;DHT22;32398;49.112;8.598;2024-02-23T13:05:54;9.70;91.50
46139;DHT22;32398;49.112;8.598;2024-02-23T13:08:36;9.80;91.30
46139;DHT22;32398;49.112;8.598;2024-02-23T13:11:04;9.80;91.10
46139;DHT22;32398;49.112;8.598;2024-02-23T13:13:31;9.90;90.90
46139;DHT22;32398;49.112;8.598;2024-02-23T13:15:58;9.90;90.90
46139;DHT22;32398;49.112;8.598;2024-02-23T13:18:25;10.00;90.80
46139;DHT22;32398;49.112;8.598;2024-02-23T13:20:51;10.10;90.70
46139;DHT22;32398;49.112;8.598;2024-02-23T13:23:18;10.10;90.20
46139;DHT22;32398;49.112;8.598;2024-02-23T13:25:46;10.10;90.40
46139;DHT22;32398;49.112;8.598;2024-02-23T13:28:13;10.10;90.20
46139;DHT22;32398;49.112;8.598;2024-02-23T13:30:39;10.10;90.60
46139;DHT22;32398;49.112;8.598;2024-02-23T13:33:07;10.10;90.50
46139;DHT22;32398;49.112;8.598;2024-02-23T13:35:36;10.00;90.10
46139;DHT22;32398;49.112;8.598;2024-02-23T13:38:07;10.10;90.60
46139;DHT22;32398;49.112;8.598;2024-02-23T13:40:34;10.10;90.60
46139;DHT22;32398;49.112;8.598;2024-02-23T13:43:04;10.00;90.90
46139;DHT22;32398;49.112;8.598;2024-02-23T13:45:31;10.00;90.60
46139;DHT22;32398;49.112;8.598;2024-02-23T13:47:58;10.00;90.30
46139;DHT22;32398;49.112;8.598;2024-02-23T13:50:25;10.00;90.70
46139;DHT22;32398;49.112;8.598;2024-02-23T13:52:52;10.00;90.10
46139;DHT22;32398;49.112;8.598;2024-02-23T13:55:19;10.00;90.60
46139;DHT22;32398;49.112;8.598;2024-02-23T13:57:46;10.00;90.10
46139;DHT22;32398;49.112;8.598;2024-02-23T14:00:17;10.10;90.30
46139;DHT22;32398;49.112;8.598;2024-02-23T14:02:46;10.10;90.20
46139;DHT22;32398;49.112;8.598;2024-02-23T14:05:16;10.10;90.10
46139;DHT22;32398;49.112;8.598;2024-02-23T14:07:43;10.20;90.50
46139;DHT22;32398;49.112;8.598;2024-02-23T14:10:10;10.20;90.20
46139;DHT22;32398;49.112;8.598;2024-02-23T14:12:37;10.30;90.00
46139;DHT22;32398;49.112;8.598;2024-02-23T14:15:04;10.40;90.30
46139;DHT22;32398;49.112;8.598;2024-02-23T14:17:32;10.30;89.80
46139;DHT22;32398;49.112;8.598;2024-02-23T14:19:59;10.40;90.10
46139;DHT22;32398;49.112;8.598;2024-02-23T14:22:26;10.40;90.40
46139;DHT22;32398;49.112;8.598;2024-02-23T14:24:54;10.50;89.50
46139;DHT22;32398;49.112;8.598;2024-02-23T14:27:20;10.50;89.10
46139;DHT22;32398;49.112;8.598;2024-02-23T14:29:47;10.40;88.30
46139;DHT22;32398;49.112;8.598;2024-02-23T14:32:15;10.50;88.50
46139;DHT22;32398;49.112;8.598;2024-02-23T14:34:43;10.50;90.00
46139;DHT22;32398;49.112;8.598;2024-02-23T14:37:10;10.50;90.50
46139;DHT22;32398;49.112;8.598;2024-02-23T14:39:37;10.50;90.00
46139;DHT22;32398;49.112;8.598;2024-02-23T14:42:04;10.50;89.80
46139;DHT22;32398;49.112;8.598;2024-02-23T14:44:30;10.40;89.30
46139;DHT22;32398;49.112;8.598;2024-02-23T14:46:57;11.50;90.20
46139;DHT22;32398;49.112;8.598;2024-02-23T14:49:24;10.40;89.70
46139;DHT22;32398;49.112;8.598;2024-02-23T14:51:52;10.40;89.50
46139;DHT22;32398;49.112;8.598;2024-02-23T14:54:20;10.40;90.30
46139;DHT22;32398;49.112;8.598;2024-02-23T14:56:47;10.40;90.10
46139;DHT22;32398;49.112;8.598;2024-02-23T14:59:13;10.40;89.10
46139;DHT22;32398;49.112;8.598;2024-02-23T15:01:40;10.40;90.00
46139;DHT22;32398;49.112;8.598;2024-02-23T15:04:07;10.40;89.80
46139;DHT22;32398;49.112;8.598;2024-02-23T15:06:43;10.30;89.50
46139;DHT22;32398;49.112;8.598;2024-02-23T15:09:11;10.30;89.60
46139;DHT22;32398;49.112;8.598;2024-02-23T15:11:38;10.30;90.20
46139;DHT22;32398;49.112;8.598;2024-02-23T15:14:05;10.30;90.70
46139;DHT22;32398;49.112;8.598;2024-02-23T15:16:31;10.30;90.60
46139;DHT22;32398;49.112;8.598;2024-02-23T15:19:01;10.30;90.50
46139;DHT22;32398;49.112;8.598;2024-02-23T15:21:28;10.30;90.60
46139;DHT22;32398;49.112;8.598;2024-02-23T15:23:58;10.30;90.30
46139;DHT22;32398;49.112;8.598;2024-02-23T15:26:31;10.30;90.10
46139;DHT22;32398;49.112;8.598;2024-02-23T15:28:57;10.30;90.10
46139;DHT22;32398;49.112;8.598;2024-02-23T15:31:24;10.30;90.40
46139;DHT22;32398;49.112;8.598;2024-02-23T15:33:52;10.40;90.30
46139;DHT22;32398;49.112;8.598;2024-02-23T15:36:18;10.40;90.00
46139;DHT22;32398;49.112;8.598;2024-02-23T15:38:45;10.40;90.30
46139;DHT22;32398;49.112;8.598;2024-02-23T15:41:14;10.40;89.40
46139;DHT22;32398;49.112;8.598;2024-02-23T15:43:42;10.40;89.00